Time;durP1;ratioP1;P1;durP2;ratioP2;P2;SDS_P1;SDS_P2;PMS_P1;PMS_P2;Temp;Humidity;BMP_temperature;BMP_pressure;BME280_temperature;BME280_humidity;BME280_pressure;Samples;Min_cycle;Max_cycle;Signal;HPM_P1;HPM_P2
2023/10/10 00:00:27;;;;;;;38.97;29.10;;;;;;;;;;5031149;28;20100;-61
2023/10/10 00:02:52;;;;;;;35.67;26.13;;;;;;;;;;5031598;28;20017;-63
2023/10/10 00:05:18;;;;;;;40.60;31.27;;;;;;;;;;5032402;28;20070;-62
2023/10/10 00:07:43;;;;;;;34.00;24.95;;;;;;;;;;5031769;28;20025;-60
2023/10/10 00:10:13;;;;;;;38.85;29.75;;;;;;;;;;5034636;28;20021;-62
2023/10/10 00:12:39;;;;;;;36.53;26.38;;;;;;;;;;5034739;28;20032;-62
2023/10/10 00:15:13;;;;;;;47.90;29.25;;;;;;;;;;5033106;28;20024;-62
2023/10/10 00:17:38;;;;;;;35.47;27.52;;;;;;;;;;5034307;28;20025;-61
2023/10/10 00:20:16;;;;;;;38.60;25.43;;;;;;;;;;5033499;28;20504;-59
2023/10/10 00:22:43;;;;;;;37.28;26.67;;;;;;;;;;5033914;28;20022;-61
2023/10/10 00:25:16;;;;;;;34.22;27.20;;;;;;;;;;5032477;28;20465;-62
2023/10/10 00:27:43;;;;;;;42.85;27.90;;;;;;;;;;5033777;28;20014;-62
2023/10/10 00:30:13;;;;;;;39.92;27.33;;;;;;;;;;5033528;28;20100;-62
2023/10/10 00:32:42;;;;;;;36.90;26.30;;;;;;;;;;5033755;28;20100;-60
2023/10/10 00:35:09;;;;;;;37.40;29.70;;;;;;;;;;5034058;28;20127;-61
2023/10/10 00:37:35;;;;;;;37.30;28.23;;;;;;;;;;5033868;28;20022;-62
2023/10/10 00:40:08;;;;;;;36.33;26.35;;;;;;;;;;5032996;28;20026;-62
2023/10/10 00:42:37;;;;;;;36.97;25.35;;;;;;;;;;5033540;28;20029;-61
2023/10/10 00:45:14;;;;;;;30.73;24.00;;;;;;;;;;5033238;28;20022;-61
2023/10/10 00:47:43;;;;;;;36.47;26.88;;;;;;;;;;5033611;28;20562;-61
2023/10/10 00:50:14;;;;;;;31.60;23.58;;;;;;;;;;5032975;28;20037;-61
2023/10/10 00:52:41;;;;;;;35.70;25.83;;;;;;;;;;5032072;28;20025;-62
2023/10/10 00:55:06;;;;;;;28.90;21.98;;;;;;;;;;5033178;28;20105;-62
2023/10/10 00:57:35;;;;;;;28.52;20.77;;;;;;;;;;5033380;28;20762;-62
2023/10/10 01:00:07;;;;;;;39.25;27.42;;;;;;;;;;5032628;28;20021;-62
2023/10/10 01:02:34;;;;;;;37.35;29.52;;;;;;;;;;5032976;28;20466;-62
2023/10/10 01:05:05;;;;;;;34.85;27.17;;;;;;;;;;5032866;28;20017;-61
2023/10/10 01:07:34;;;;;;;40.15;36.05;;;;;;;;;;5032981;28;20432;-61
2023/10/10 01:10:11;;;;;;;34.55;28.88;;;;;;;;;;5032346;28;20432;-61
2023/10/10 01:12:39;;;;;;;43.25;39.28;;;;;;;;;;5031885;28;20028;-62
2023/10/10 01:15:25;;;;;;;24.42;21.42;;;;;;;;;;5033107;28;20021;-61
2023/10/10 01:17:50;;;;;;;27.85;20.42;;;;;;;;;;5032695;28;20036;-62
2023/10/10 01:20:25;;;;;;;34.58;30.95;;;;;;;;;;5032263;28;20026;-62
2023/10/10 01:22:51;;;;;;;24.58;19.80;;;;;;;;;;5032789;28;20025;-61
2023/10/10 01:28:03;;;;;;;22.70;19.88;;;;;;;;;;5032553;28;20485;-61
2023/10/10 01:31:10;;;;;;;24.42;21.83;;;;;;;;;;5032184;28;20539;-61
2023/10/10 01:33:16;;;;;;;33.22;27.80;;;;;;;;;;5026841;28;20059;-60
2023/10/10 01:35:42;;;;;;;23.90;18.02;;;;;;;;;;5032704;28;20545;-62
2023/10/10 01:38:31;;;;;;;31.33;27.63;;;;;;;;;;5033602;28;20093;-62
2023/10/10 01:40:58;;;;;;;25.25;22.60;;;;;;;;;;5033669;28;20017;-62
2023/10/10 01:43:24;;;;;;;25.30;22.42;;;;;;;;;;5033845;28;20022;-62
2023/10/10 01:46:08;;;;;;;23.40;18.92;;;;;;;;;;5035105;28;20028;-62
2023/10/10 01:48:33;;;;;;;25.27;21.67;;;;;;;;;;5032352;28;20037;-62
2023/10/10 01:51:00;;;;;;;28.63;25.80;;;;;;;;;;5031670;28;20025;-62
2023/10/10 01:53:25;;;;;;;24.48;21.92;;;;;;;;;;5030842;28;20504;-62
2023/10/10 01:55:50;;;;;;;26.37;20.17;;;;;;;;;;5031892;28;20108;-61
2023/10/10 01:58:19;;;;;;;25.17;22.45;;;;;;;;;;5032167;28;20013;-59
2023/10/10 02:00:46;;;;;;;24.48;21.63;;;;;;;;;;5031688;28;20028;-60
2023/10/10 02:03:12;;;;;;;23.83;21.33;;;;;;;;;;5031851;28;20020;-61
2023/10/10 02:08:16;;;;;;;25.47;19.53;;;;;;;;;;5031926;28;20052;-61
2023/10/10 02:10:44;;;;;;;33.05;29.73;;;;;;;;;;5031207;28;20017;-60
2023/10/10 02:13:11;;;;;;;29.85;26.88;;;;;;;;;;5032717;28;20017;-62
2023/10/10 02:15:39;;;;;;;23.95;21.65;;;;;;;;;;5031851;28;20385;-62
2023/10/10 02:18:04;;;;;;;20.70;18.42;;;;;;;;;;5031741;28;20022;-61
2023/10/10 02:23:22;;;;;;;18.45;15.57;;;;;;;;;;5031928;28;20018;-63
2023/10/10 02:25:48;;;;;;;19.88;16.00;;;;;;;;;;5031538;28;20009;-62
2023/10/10 02:30:41;;;;;;;20.08;15.20;;;;;;;;;;5029869;28;20461;-60
2023/10/10 02:35:54;;;;;;;20.17;13.75;;;;;;;;;;5031695;28;20061;-61
2023/10/10 02:38:34;;;;;;;18.23;16.40;;;;;;;;;;5031403;28;20014;-62
2023/10/10 02:41:15;;;;;;;25.38;23.00;;;;;;;;;;5030740;28;20017;-63
2023/10/10 02:43:46;;;;;;;23.52;19.27;;;;;;;;;;5031041;28;20478;-63
2023/10/10 02:46:17;;;;;;;17.80;13.85;;;;;;;;;;5031519;28;20024;-62
2023/10/10 02:48:43;;;;;;;16.23;14.52;;;;;;;;;;5031320;28;20021;-62
2023/10/10 02:51:15;;;;;;;21.42;19.63;;;;;;;;;;5031006;28;20112;-60
2023/10/10 02:53:46;;;;;;;15.55;13.25;;;;;;;;;;5031433;28;20032;-61
2023/10/10 02:56:16;;;;;;;19.00;17.27;;;;;;;;;;5031727;28;20486;-62
2023/10/10 02:58:43;;;;;;;21.17;19.35;;;;;;;;;;5032940;28;20117;-63
2023/10/10 03:01:19;;;;;;;;;;;;;;;;;;5031322;28;20017;-61
2023/10/10 03:03:44;;;;;;;15.57;10.45;;;;;;;;;;5030871;28;19952;-62
2023/10/10 03:06:10;;;;;;;16.42;14.13;;;;;;;;;;5029891;28;20033;-62
2023/10/10 03:08:41;;;;;;;15.60;14.00;;;;;;;;;;5030925;28;20053;-62
2023/10/10 03:11:35;;;;;;;21.92;20.20;;;;;;;;;;5031428;28;20048;-62
2023/10/10 03:14:07;;;;;;;18.58;14.18;;;;;;;;;;5030994;28;20036;-62
2023/10/10 03:16:42;;;;;;;22.38;20.40;;;;;;;;;;5030886;28;20397;-62
2023/10/10 03:21:51;;;;;;;15.88;14.38;;;;;;;;;;5030565;28;20481;-62
2023/10/10 03:27:01;;;;;;;21.52;19.55;;;;;;;;;;5030678;28;20017;-62
2023/10/10 03:29:46;;;;;;;22.48;20.48;;;;;;;;;;5030161;28;20029;-63
2023/10/10 03:34:55;;;;;;;20.73;18.88;;;;;;;;;;5030668;28;20018;-62
2023/10/10 03:37:33;;;;;;;14.40;11.38;;;;;;;;;;5030377;28;20026;-62
2023/10/10 03:40:21;;;;;;;17.90;16.25;;;;;;;;;;5030288;28;20395;-62
2023/10/10 05:23:58;;;;;;;28.77;26.65;;;;;;;;;;5032767;28;20099;-61
2023/10/10 05:26:24;;;;;;;53.25;49.60;;;;;;;;;;5032806;28;20369;-63
2023/10/10 05:28:49;;;;;;;41.23;38.23;;;;;;;;;;5032841;28;20109;-63
2023/10/10 05:31:19;;;;;;;20.67;18.80;;;;;;;;;;5032336;28;20029;-62
2023/10/10 05:33:47;;;;;;;68.28;64.10;;;;;;;;;;5032604;28;20056;-63
2023/10/10 05:36:13;;;;;;;16.15;14.27;;;;;;;;;;5032984;28;20105;-62
2023/10/10 05:38:39;;;;;;;27.73;25.33;;;;;;;;;;5032556;28;20025;-62
2023/10/10 05:41:06;;;;;;;17.75;16.13;;;;;;;;;;5032042;28;20440;-62
2023/10/10 05:43:34;;;;;;;31.42;29.10;;;;;;;;;;5032665;28;20041;-63
2023/10/10 05:45:59;;;;;;;45.22;41.92;;;;;;;;;;5032234;28;20028;-62
2023/10/10 05:48:26;;;;;;;31.83;29.42;;;;;;;;;;5032183;28;20435;-63
2023/10/10 05:50:51;;;;;;;;;;;;;;;;;;5031000;28;20034;-63
2023/10/10 05:53:16;;;;;;;18.95;17.20;;;;;;;;;;5032399;28;20020;-63
2023/10/10 05:55:43;;;;;;;15.52;13.90;;;;;;;;;;5032008;28;20036;-60
2023/10/10 05:58:08;;;;;;;;;;;;;;;;;;5032895;28;20021;-60
2023/10/10 06:00:36;;;;;;;20.07;18.53;;;;;;;;;;5031690;28;19912;-61
2023/10/10 06:03:02;;;;;;;29.77;27.52;;;;;;;;;;5031745;28;20110;-63
2023/10/10 06:05:29;;;;;;;35.13;32.50;;;;;;;;;;5031621;28;20077;-61
2023/10/10 06:07:54;;;;;;;45.42;42.35;;;;;;;;;;5032070;28;20013;-59
2023/10/10 06:10:20;;;;;;;43.20;40.30;;;;;;;;;;5032205;28;20022;-60
2023/10/10 06:12:45;;;;;;;53.83;50.28;;;;;;;;;;5035076;28;20077;-62
2023/10/10 06:15:17;;;;;;;23.40;21.40;;;;;;;;;;5032032;28;20025;-62
2023/10/10 06:17:48;;;;;;;27.48;25.10;;;;;;;;;;5031405;28;20021;-62
2023/10/10 06:20:16;;;;;;;18.00;16.48;;;;;;;;;;5029791;28;20031;-62
2023/10/10 06:22:44;;;;;;;47.45;44.10;;;;;;;;;;5031627;28;20010;-62
2023/10/10 06:25:10;;;;;;;27.77;25.77;;;;;;;;;;5031501;28;20025;-61
2023/10/10 06:27:37;;;;;;;57.63;54.05;;;;;;;;;;5031521;28;20026;-62
2023/10/10 06:30:05;;;;;;;42.55;39.67;;;;;;;;;;5030761;28;20022;-60
2023/10/10 06:32:31;;;;;;;44.10;40.92;;;;;;;;;;5031881;28;20055;-61
2023/10/10 06:37:41;;;;;;;18.38;16.88;;;;;;;;;;5031498;28;20024;-60
2023/10/10 06:40:08;;;;;;;18.95;17.02;;;;;;;;;;5030750;28;20021;-60
2023/10/10 06:42:34;;;;;;;24.98;23.10;;;;;;;;;;5031291;28;20025;-62
2023/10/10 06:45:07;;;;;;;26.35;24.25;;;;;;;;;;5031310;28;20079;-62
2023/10/10 06:47:32;;;;;;;28.67;26.60;;;;;;;;;;5031432;28;20108;-61
2023/10/10 06:50:00;;;;;;;34.60;32.15;;;;;;;;;;5030787;28;20189;-61
2023/10/10 06:52:27;;;;;;;46.67;43.33;;;;;;;;;;5031539;28;20028;-62
2023/10/10 06:54:55;;;;;;;;;;;;;;;;;;5031819;28;20022;-63
2023/10/10 06:57:21;;;;;;;21.42;18.85;;;;;;;;;;5030965;28;19960;-63
2023/10/10 06:59:48;;;;;;;18.13;16.60;;;;;;;;;;5030705;28;20025;-62
2023/10/10 07:02:19;;;;;;;33.15;30.80;;;;;;;;;;5031081;28;20529;-62
2023/10/10 07:04:46;;;;;;;42.47;39.42;;;;;;;;;;5031173;28;20026;-61
2023/10/10 07:07:13;;;;;;;29.10;26.75;;;;;;;;;;5031070;28;20382;-61
2023/10/10 07:09:42;;;;;;;25.63;23.55;;;;;;;;;;5030171;28;20040;-62
2023/10/10 07:12:10;;;;;;;46.97;43.53;;;;;;;;;;5031275;28;20075;-62
2023/10/10 07:14:40;;;;;;;19.33;17.10;;;;;;;;;;5030863;28;20022;-62
2023/10/10 07:17:11;;;;;;;26.52;24.42;;;;;;;;;;5030760;28;20021;-62
2023/10/10 07:19:54;;;;;;;22.63;20.48;;;;;;;;;;5030242;28;20032;-62
2023/10/10 07:22:21;;;;;;;22.60;20.52;;;;;;;;;;5031083;28;20013;-60
2023/10/10 07:24:47;;;;;;;67.32;62.92;;;;;;;;;;5030852;28;20014;-60
2023/10/10 07:27:12;;;;;;;27.17;24.93;;;;;;;;;;5029882;28;20028;-61
2023/10/10 07:32:17;;;;;;;22.20;20.23;;;;;;;;;;5031058;28;20421;-61
2023/10/10 07:34:49;;;;;;;58.25;54.50;;;;;;;;;;5031020;28;20017;-62
2023/10/10 07:37:14;;;;;;;23.83;22.08;;;;;;;;;;5031269;28;20532;-62
2023/10/10 07:39:55;;;;;;;27.08;25.00;;;;;;;;;;5030306;28;20104;-59
2023/10/10 07:42:30;;;;;;;15.00;13.52;;;;;;;;;;5031674;28;20092;-60
2023/10/10 07:44:59;;;;;;;44.38;41.33;;;;;;;;;;5032200;28;20040;-61
2023/10/10 07:47:31;;;;;;;18.88;17.23;;;;;;;;;;5031980;28;20485;-61
2023/10/10 07:49:59;;;;;;;20.50;18.65;;;;;;;;;;5030980;28;20060;-62
2023/10/10 07:52:24;;;;;;;17.52;15.93;;;;;;;;;;5032083;28;20022;-62
2023/10/10 07:54:53;;;;;;;39.00;36.40;;;;;;;;;;5031104;28;20029;-61
2023/10/10 07:57:29;;;;;;;18.58;16.85;;;;;;;;;;5030373;28;20967;-62
2023/10/10 07:59:58;;;;;;;25.73;23.80;;;;;;;;;;5030237;28;20025;-62
2023/10/10 08:04:55;;;;;;;41.03;38.10;;;;;;;;;;5031085;28;20021;-62
2023/10/10 08:07:21;;;;;;;29.08;26.98;;;;;;;;;;5031555;28;20039;-61
2023/10/10 08:09:46;;;;;;;19.65;17.85;;;;;;;;;;5029813;28;20030;-61
2023/10/10 08:12:13;;;;;;;19.35;17.73;;;;;;;;;;5030402;28;20028;-62
2023/10/10 08:14:39;;;;;;;17.50;15.93;;;;;;;;;;5030283;28;20028;-61
2023/10/10 08:17:18;;;;;;;16.67;15.32;;;;;;;;;;5029961;28;20496;-61
2023/10/10 08:19:44;;;;;;;13.57;12.32;;;;;;;;;;5029843;28;20037;-62
2023/10/10 08:22:12;;;;;;;20.73;19.02;;;;;;;;;;5030314;28;20029;-63
2023/10/10 08:24:39;;;;;;;17.15;15.65;;;;;;;;;;5030193;28;20025;-62
2023/10/10 08:27:10;;;;;;;22.45;20.65;;;;;;;;;;5030681;28;20258;-61
2023/10/10 08:29:35;;;;;;;19.27;17.77;;;;;;;;;;5030857;28;20079;-63
2023/10/10 08:32:00;;;;;;;14.30;13.00;;;;;;;;;;5034440;28;20018;-61
2023/10/10 08:34:25;;;;;;;21.17;19.57;;;;;;;;;;5033828;28;20020;-61
2023/10/10 08:36:51;;;;;;;19.42;18.08;;;;;;;;;;5033674;28;20089;-62
2023/10/10 08:41:42;;;;;;;15.30;14.10;;;;;;;;;;5033606;28;20032;-62
2023/10/10 08:44:11;;;;;;;14.15;12.85;;;;;;;;;;5033576;28;20025;-60
2023/10/10 08:46:48;;;;;;;11.50;10.45;;;;;;;;;;5033622;28;20013;-60
2023/10/10 08:49:14;;;;;;;10.30;9.30;;;;;;;;;;5033643;28;20039;-60
2023/10/10 08:51:41;;;;;;;12.15;11.15;;;;;;;;;;5033435;28;20092;-60
2023/10/10 08:54:10;;;;;;;16.45;15.43;;;;;;;;;;5034549;28;20022;-61
2023/10/10 08:56:37;;;;;;;19.13;17.73;;;;;;;;;;5034306;28;20460;-59
2023/10/10 08:59:03;;;;;;;6.13;4.35;;;;;;;;;;5034407;28;20469;-59
2023/10/10 09:01:33;;;;;;;9.95;9.07;;;;;;;;;;5033397;28;20036;-62
2023/10/10 09:03:58;;;;;;;8.40;7.70;;;;;;;;;;5034142;28;20104;-61
2023/10/10 09:06:32;;;;;;;11.97;10.97;;;;;;;;;;5033744;28;20109;-60
2023/10/10 09:09:00;;;;;;;25.13;23.63;;;;;;;;;;5036342;28;20037;-60
2023/10/10 09:11:25;;;;;;;9.68;8.82;;;;;;;;;;5035622;28;20047;-60
2023/10/10 09:13:51;;;;;;;7.73;7.03;;;;;;;;;;5038057;28;20017;-60
2023/10/10 09:16:17;;;;;;;23.25;21.50;;;;;;;;;;5037535;28;20420;-62
2023/10/10 09:18:42;;;;;;;39.72;37.38;;;;;;;;;;5033701;28;20585;-61
2023/10/10 09:21:18;;;;;;;21.90;20.27;;;;;;;;;;5033429;28;20049;-60
2023/10/10 09:23:52;;;;;;;38.53;36.13;;;;;;;;;;5033513;28;20489;-62
2023/10/10 09:28:55;;;;;;;17.85;16.65;;;;;;;;;;5033812;28;20014;-60
2023/10/10 09:31:20;;;;;;;6.13;5.35;;;;;;;;;;5033192;28;20021;-61
2023/10/10 09:33:47;;;;;;;28.07;26.40;;;;;;;;;;5032849;28;20446;-62
2023/10/10 09:36:15;;;;;;;37.90;35.58;;;;;;;;;;5031816;28;20424;-61
2023/10/10 09:38:45;;;;;;;13.68;12.70;;;;;;;;;;5032664;28;20048;-61
2023/10/10 09:41:26;;;;;;;18.05;16.85;;;;;;;;;;5032149;28;20017;-62
2023/10/10 09:49:29;;;;;;;9.80;8.82;;;;;;;;;;5032317;28;20029;-62
2023/10/10 09:54:39;;;;;;;11.05;10.15;;;;;;;;;;5032412;28;20036;-60
2023/10/10 09:57:08;;;;;;;23.20;21.65;;;;;;;;;;5032012;28;20025;-62
2023/10/10 09:59:37;;;;;;;19.15;17.95;;;;;;;;;;5031734;28;20021;-62
2023/10/10 10:02:05;;;;;;;28.88;27.02;;;;;;;;;;5032267;28;20109;-61
2023/10/10 10:04:38;;;;;;;11.45;10.35;;;;;;;;;;5032466;28;20025;-62
2023/10/10 10:07:12;;;;;;;15.60;14.40;;;;;;;;;;5032918;28;20020;-60
2023/10/10 10:10:00;;;;;;;18.27;16.85;;;;;;;;;;5011577;28;20894;-60
2023/10/10 10:12:33;;;;;;;12.48;11.45;;;;;;;;;;5027752;28;20026;-61
2023/10/10 10:14:59;;;;;;;;;;;;;;;;;;5013703;28;20468;-62
2023/10/10 10:17:54;;;;;;;8.90;7.25;;;;;;;;;;5012513;28;19905;-60
2023/10/10 10:20:47;;;;;;;14.82;13.63;;;;;;;;;;5006617;28;20044;-61
2023/10/10 10:23:26;;;;;;;12.82;11.63;;;;;;;;;;5012431;28;20105;-60
2023/10/10 10:26:21;;;;;;;21.83;20.25;;;;;;;;;;5012009;28;20073;-62
2023/10/10 10:28:56;;;;;;;29.30;27.27;;;;;;;;;;5012307;28;20566;-62
2023/10/10 10:31:28;;;;;;;35.08;32.13;;;;;;;;;;5011685;28;20022;-62
2023/10/10 10:33:53;;;;;;;;;;;;;;;;;;5027359;28;20022;-62
2023/10/10 10:36:19;;;;;;;17.92;16.52;;;;;;;;;;5026973;28;19912;-62
2023/10/10 10:39:19;;;;;;;16.70;15.38;;;;;;;;;;5011864;28;20547;-61
2023/10/10 10:41:42;;;;;;;17.77;16.50;;;;;;;;;;5011633;28;20030;-60
2023/10/10 10:44:09;;;;;;;17.63;16.33;;;;;;;;;;5012024;28;20032;-61
2023/10/10 10:46:39;;;;;;;15.23;13.73;;;;;;;;;;5011798;28;20026;-61
2023/10/10 10:49:06;;;;;;;49.30;46.35;;;;;;;;;;5011934;28;20109;-60
2023/10/10 10:51:47;;;;;;;25.75;23.90;;;;;;;;;;5011286;28;20074;-60
2023/10/10 10:54:35;;;;;;;15.40;14.00;;;;;;;;;;5011547;28;20097;-61
2023/10/10 10:57:01;;;;;;;37.05;34.60;;;;;;;;;;5011249;28;20025;-62
2023/10/10 10:59:35;;;;;;;11.10;10.07;;;;;;;;;;5011131;28;20056;-62
2023/10/10 11:02:00;;;;;;;25.35;23.70;;;;;;;;;;5011541;28;20026;-61
2023/10/10 11:07:03;;;;;;;33.17;31.13;;;;;;;;;;5011359;28;21042;-61
2023/10/10 11:09:28;;;;;;;15.02;13.90;;;;;;;;;;5029603;28;20034;-61
2023/10/10 11:12:02;;;;;;;20.43;18.97;;;;;;;;;;5031330;28;20025;-60
2023/10/10 11:14:29;;;;;;;20.38;18.92;;;;;;;;;;5031172;28;20843;-62
2023/10/10 11:16:56;;;;;;;48.67;45.58;;;;;;;;;;5031060;28;20087;-61
2023/10/10 11:21:53;;;;;;;33.17;31.02;;;;;;;;;;5031144;28;20547;-61
2023/10/10 11:24:25;;;;;;;157.23;149.45;;;;;;;;;;5031088;28;20053;-61
2023/10/10 11:27:02;;;;;;;;;;;;;;;;;;5031279;28;20017;-62
2023/10/10 11:29:27;;;;;;;9.93;8.93;;;;;;;;;;5030600;28;19940;-60
2023/10/10 11:32:08;;;;;;;26.33;24.55;;;;;;;;;;5030890;28;20053;-61
2023/10/10 11:34:42;;;;;;;13.73;12.02;;;;;;;;;;5030019;28;20024;-60
2023/10/10 11:37:15;;;;;;;24.88;23.17;;;;;;;;;;5030806;28;20056;-61
2023/10/10 11:39:47;;;;;;;11.43;9.65;;;;;;;;;;5030341;28;20460;-61
2023/10/10 11:42:13;;;;;;;;;;;;;;;;;;5031401;28;20481;-60
2023/10/10 11:44:41;;;;;;;12.77;11.57;;;;;;;;;;5030903;28;20004;-62
2023/10/10 11:47:08;;;;;;;18.88;17.48;;;;;;;;;;5030765;28;20148;-62
2023/10/10 11:49:33;;;;;;;22.05;20.55;;;;;;;;;;5030182;28;20048;-61
2023/10/10 11:51:59;;;;;;;15.93;14.70;;;;;;;;;;5030759;28;20060;-60
2023/10/10 11:54:25;;;;;;;28.25;26.23;;;;;;;;;;5030536;28;20420;-62
2023/10/10 11:56:51;;;;;;;30.08;28.02;;;;;;;;;;5030414;28;20438;-61
2023/10/10 11:59:17;;;;;;;18.92;17.52;;;;;;;;;;5030391;28;20022;-60
2023/10/10 12:01:54;;;;;;;21.63;20.08;;;;;;;;;;5030342;28;20034;-62
2023/10/10 12:04:31;;;;;;;17.73;16.40;;;;;;;;;;5031569;28;20014;-61
2023/10/10 12:07:00;;;;;;;26.88;25.15;;;;;;;;;;5037272;28;20018;-61
2023/10/10 12:09:26;;;;;;;21.55;20.13;;;;;;;;;;5036869;28;20021;-60
2023/10/10 12:11:59;;;;;;;39.65;37.15;;;;;;;;;;5038845;28;20028;-60
2023/10/10 12:14:29;;;;;;;19.42;18.00;;;;;;;;;;5035316;28;20030;-60
2023/10/10 12:16:57;;;;;;;29.38;27.55;;;;;;;;;;5034594;28;20045;-60
2023/10/10 12:19:22;;;;;;;31.17;29.05;;;;;;;;;;5033229;28;20029;-62
2023/10/10 12:21:47;;;;;;;29.67;27.88;;;;;;;;;;5034231;28;20044;-59
2023/10/10 12:24:13;;;;;;;52.33;49.38;;;;;;;;;;5034349;28;20139;-61
2023/10/10 12:26:41;;;;;;;15.65;14.32;;;;;;;;;;5034139;28;20087;-61
2023/10/10 12:29:10;;;;;;;36.85;34.65;;;;;;;;;;5033947;28;20112;-62
2023/10/10 12:31:36;;;;;;;36.00;33.88;;;;;;;;;;5034673;28;20026;-62
2023/10/10 12:34:01;;;;;;;97.57;92.30;;;;;;;;;;5033796;28;20105;-59
2023/10/10 12:36:30;;;;;;;100.60;94.93;;;;;;;;;;5033793;28;20101;-62
2023/10/10 12:38:55;;;;;;;94.50;89.43;;;;;;;;;;5033569;28;20719;-62
2023/10/10 12:41:20;;;;;;;47.85;44.95;;;;;;;;;;5032977;28;20053;-61
2023/10/10 12:43:46;;;;;;;83.57;78.87;;;;;;;;;;5033844;28;20365;-61
2023/10/10 12:46:16;;;;;;;38.00;35.75;;;;;;;;;;5033805;28;20021;-60
2023/10/10 12:48:41;;;;;;;36.17;33.90;;;;;;;;;;5033638;28;20048;-60
2023/10/10 12:51:09;;;;;;;41.40;38.63;;;;;;;;;;5033697;28;20030;-61
2023/10/10 12:53:39;;;;;;;46.72;43.92;;;;;;;;;;5033782;28;20423;-61
2023/10/10 12:56:05;;;;;;;59.53;55.97;;;;;;;;;;5033666;28;20053;-60
2023/10/10 12:58:31;;;;;;;114.18;108.00;;;;;;;;;;5033559;28;20468;-60
2023/10/10 13:00:58;;;;;;;69.50;65.50;;;;;;;;;;5032994;28;20493;-60
2023/10/10 13:03:27;;;;;;;106.60;100.68;;;;;;;;;;5033348;28;20088;-60
2023/10/10 13:05:58;;;;;;;89.70;84.63;;;;;;;;;;5033084;28;20017;-61
2023/10/10 13:08:24;;;;;;;62.17;58.67;;;;;;;;;;5033077;28;20021;-61
2023/10/10 13:10:54;;;;;;;45.85;42.85;;;;;;;;;;5032708;28;20042;-62
2023/10/10 13:13:26;;;;;;;47.83;45.03;;;;;;;;;;5033004;28;20112;-61
2023/10/10 13:16:07;;;;;;;58.03;54.33;;;;;;;;;;5031203;28;20036;-60
2023/10/10 13:18:32;;;;;;;98.25;92.85;;;;;;;;;;5032665;28;20028;-60
2023/10/10 13:21:00;;;;;;;46.87;43.97;;;;;;;;;;5032487;28;20029;-62
2023/10/10 13:23:25;;;;;;;79.13;74.65;;;;;;;;;;5031607;28;20013;-61
2023/10/10 13:25:50;;;;;;;39.53;37.20;;;;;;;;;;5032941;28;20167;-61
2023/10/10 13:28:20;;;;;;;39.73;37.23;;;;;;;;;;5032527;28;20022;-61
2023/10/10 13:30:48;;;;;;;37.63;35.33;;;;;;;;;;5032393;28;20045;-61
2023/10/10 13:33:16;;;;;;;81.00;76.40;;;;;;;;;;5032711;28;20144;-62
2023/10/10 13:35:42;;;;;;;20.67;19.02;;;;;;;;;;5032759;28;20016;-61
2023/10/10 13:38:07;;;;;;;36.67;34.25;;;;;;;;;;5032250;28;20021;-61
2023/10/10 13:40:46;;;;;;;38.90;36.33;;;;;;;;;;5032277;28;20022;-61
2023/10/10 13:43:17;;;;;;;51.53;48.33;;;;;;;;;;5031711;28;20396;-61
2023/10/10 13:45:43;;;;;;;33.33;30.92;;;;;;;;;;5032323;28;20034;-60
2023/10/10 13:48:09;;;;;;;22.63;20.95;;;;;;;;;;5032160;28;20112;-61
2023/10/10 13:50:41;;;;;;;30.63;28.43;;;;;;;;;;5031825;28;20116;-62
2023/10/10 13:53:06;;;;;;;;;;;;;;;;;;5032847;28;20017;-62
2023/10/10 13:55:31;;;;;;;40.13;37.63;;;;;;;;;;5032192;28;19958;-61
2023/10/10 13:57:56;;;;;;;28.48;26.63;;;;;;;;;;5032096;28;20013;-61
2023/10/10 14:00:33;;;;;;;46.23;43.00;;;;;;;;;;5031513;28;20022;-61
2023/10/10 14:03:04;;;;;;;35.38;33.00;;;;;;;;;;5032424;28;20477;-62
2023/10/10 14:05:32;;;;;;;26.80;24.88;;;;;;;;;;5032561;28;20466;-61
2023/10/10 14:07:57;;;;;;;24.08;22.05;;;;;;;;;;5031906;28;20585;-61
2023/10/10 14:10:22;;;;;;;18.30;16.75;;;;;;;;;;5031557;28;20029;-62
2023/10/10 14:12:50;;;;;;;26.90;24.80;;;;;;;;;;5032169;28;20038;-61
2023/10/10 14:15:18;;;;;;;36.88;34.53;;;;;;;;;;5032493;28;20401;-60
2023/10/10 14:17:46;;;;;;;66.30;62.53;;;;;;;;;;5034032;28;20465;-61
2023/10/10 14:20:20;;;;;;;35.45;33.22;;;;;;;;;;5031311;28;20160;-59
2023/10/10 14:22:46;;;;;;;37.80;35.15;;;;;;;;;;5030469;28;20439;-61
2023/10/10 14:25:14;;;;;;;45.08;42.33;;;;;;;;;;5031762;28;20096;-62
2023/10/10 14:27:43;;;;;;;28.55;26.65;;;;;;;;;;5031403;28;20465;-62
2023/10/10 14:30:20;;;;;;;25.48;23.75;;;;;;;;;;5031021;28;20033;-61
2023/10/10 14:32:45;;;;;;;19.45;17.88;;;;;;;;;;5031699;28;20465;-62
2023/10/10 14:35:12;;;;;;;28.27;26.33;;;;;;;;;;5031518;28;20030;-59
2023/10/10 14:37:37;;;;;;;27.38;25.42;;;;;;;;;;5031631;28;20017;-61
2023/10/10 14:40:08;;;;;;;41.37;38.47;;;;;;;;;;5030516;28;20032;-61
2023/10/10 14:42:33;;;;;;;33.83;31.67;;;;;;;;;;5031526;28;20381;-62
2023/10/10 14:44:58;;;;;;;30.00;27.87;;;;;;;;;;5031471;28;20017;-62
2023/10/10 14:47:23;;;;;;;27.13;25.13;;;;;;;;;;5031896;28;20025;-58
2023/10/10 14:49:55;;;;;;;23.43;21.73;;;;;;;;;;5030944;28;20030;-61
2023/10/10 14:52:20;;;;;;;36.00;33.63;;;;;;;;;;5031108;28;20095;-59
2023/10/10 14:54:48;;;;;;;18.60;17.00;;;;;;;;;;5031927;28;20423;-62
2023/10/10 14:57:23;;;;;;;28.00;25.90;;;;;;;;;;5031224;28;20509;-59
2023/10/10 14:59:49;;;;;;;21.85;20.27;;;;;;;;;;5030746;28;20347;-60
2023/10/10 15:02:16;;;;;;;40.30;37.77;;;;;;;;;;5032224;28;20143;-60
2023/10/10 15:04:41;;;;;;;32.72;30.55;;;;;;;;;;5033489;28;20069;-62
2023/10/10 15:07:06;;;;;;;34.38;32.17;;;;;;;;;;5034084;28;20111;-60
2023/10/10 15:09:35;;;;;;;27.40;25.60;;;;;;;;;;5033089;28;20034;-60
2023/10/10 15:12:01;;;;;;;28.63;26.67;;;;;;;;;;5036592;28;20037;-58
2023/10/10 15:14:26;;;;;;;;;;;;;;;;;;5034861;28;20044;-61
2023/10/10 15:16:51;;;;;;;15.75;14.25;;;;;;;;;;5032151;28;20357;-61
2023/10/10 15:19:17;;;;;;;18.63;17.00;;;;;;;;;;5030825;28;20095;-62
2023/10/10 15:21:47;;;;;;;18.80;17.37;;;;;;;;;;5030953;28;20660;-62
2023/10/10 15:24:12;;;;;;;23.00;21.33;;;;;;;;;;5031125;28;20496;-60
2023/10/10 15:26:38;;;;;;;20.93;19.03;;;;;;;;;;5031044;28;20022;-60
2023/10/10 15:29:03;;;;;;;28.48;26.35;;;;;;;;;;5030903;28;20021;-61
2023/10/10 15:31:30;;;;;;;38.70;36.00;;;;;;;;;;5030625;28;20424;-61
2023/10/10 15:33:57;;;;;;;23.48;21.48;;;;;;;;;;5030882;28;20385;-61
2023/10/10 15:36:22;;;;;;;31.38;29.17;;;;;;;;;;5030714;28;20018;-62
2023/10/10 15:38:47;;;;;;;24.20;22.03;;;;;;;;;;5032556;28;20033;-62
2023/10/10 15:41:16;;;;;;;16.40;14.90;;;;;;;;;;5034324;28;20060;-61
2023/10/10 15:43:46;;;;;;;17.70;16.02;;;;;;;;;;5034488;28;20132;-61
2023/10/10 15:46:12;;;;;;;33.90;31.45;;;;;;;;;;5035084;28;20014;-60
2023/10/10 15:48:42;;;;;;;25.42;23.35;;;;;;;;;;5034502;28;20549;-62
2023/10/10 15:51:08;;;;;;;34.17;31.75;;;;;;;;;;5033908;28;20032;-61
2023/10/10 15:53:34;;;;;;;;;;;;;;;;;;5035319;28;20075;-61
2023/10/10 15:56:08;;;;;;;16.85;14.93;;;;;;;;;;5034750;28;19905;-60
2023/10/10 15:58:35;;;;;;;22.90;21.02;;;;;;;;;;5034277;28;20025;-61
2023/10/10 16:01:00;;;;;;;23.02;21.05;;;;;;;;;;5034311;28;20049;-62
2023/10/10 16:03:25;;;;;;;22.67;20.80;;;;;;;;;;5034742;28;20048;-60
2023/10/10 16:05:51;;;;;;;22.90;21.02;;;;;;;;;;5035344;28;20017;-60
2023/10/10 16:08:16;;;;;;;22.48;20.65;;;;;;;;;;5034664;28;20497;-61
2023/10/10 16:10:41;;;;;;;22.85;20.95;;;;;;;;;;5032320;28;20446;-60
2023/10/10 16:13:07;;;;;;;26.27;24.17;;;;;;;;;;5034303;28;20088;-60
2023/10/10 16:15:33;;;;;;;32.03;29.67;;;;;;;;;;5034081;28;20492;-61
2023/10/10 16:17:59;;;;;;;33.03;30.77;;;;;;;;;;5034364;28;20034;-59
2023/10/10 16:20:24;;;;;;;29.00;26.90;;;;;;;;;;5033593;28;20033;-60
2023/10/10 16:22:49;;;;;;;33.20;30.67;;;;;;;;;;5034181;28;20056;-60
2023/10/10 16:25:15;;;;;;;28.80;26.67;;;;;;;;;;5034137;28;20079;-62
2023/10/10 16:27:40;;;;;;;28.27;25.92;;;;;;;;;;5034401;28;20056;-60
2023/10/10 16:30:07;;;;;;;40.83;38.23;;;;;;;;;;5032067;28;20029;-60
2023/10/10 16:32:35;;;;;;;26.67;24.65;;;;;;;;;;5033817;28;20049;-60
2023/10/10 16:35:04;;;;;;;37.08;34.28;;;;;;;;;;5033871;28;20465;-60
2023/10/10 16:37:29;;;;;;;46.92;43.70;;;;;;;;;;5033902;28;20144;-60
2023/10/10 16:39:55;;;;;;;31.00;28.73;;;;;;;;;;5033166;28;20691;-60
2023/10/10 16:42:23;;;;;;;43.42;40.47;;;;;;;;;;5033800;28;20029;-59
2023/10/10 16:44:52;;;;;;;38.03;35.53;;;;;;;;;;5033716;28;20021;-60
2023/10/10 16:47:19;;;;;;;79.03;74.47;;;;;;;;;;5033738;28;20080;-60
2023/10/10 16:49:45;;;;;;;43.03;40.20;;;;;;;;;;5032007;28;20507;-60
2023/10/10 16:52:11;;;;;;;40.13;37.40;;;;;;;;;;5033388;28;20018;-60
2023/10/10 16:54:36;;;;;;;87.43;82.18;;;;;;;;;;5033796;28;20101;-59
2023/10/10 16:57:04;;;;;;;41.77;38.93;;;;;;;;;;5033451;28;20089;-60
2023/10/10 16:59:30;;;;;;;36.10;33.38;;;;;;;;;;5033024;28;20433;-60